Observation data for Levelland on 01/19/2019      Previous  Date  Next       Current Mesonet Observations  Soil Data  Daily Summary Page  Observations in Plain Language
KLD1 190600Z 33018G26KT 01/M00 A3008 RMK A01 T00131003  RH  090%=      5-min Rain = 0
KLD1 190605Z 33019G27KT 01/M00 A3008 RMK A01 T00141004  RH  089%=      5-min Rain = 0
KLD1 190610Z 33022G30KT 02/M01 A3008 RMK A01 T00151007  RH  086%=      5-min Rain = 0
KLD1 190615Z 34023G28KT 02/M01 A3009 RMK A01 T00151010  RH  084%=      5-min Rain = 0
KLD1 190620Z 34021G28KT 02/M01 A3009 RMK A01 T00151010  RH  084%=      5-min Rain = 0
KLD1 190625Z 33024G30KT 02/M01 A3009 RMK A01 T00151012  RH  083%=      5-min Rain = 0
KLD1 190630Z 34021G26KT 01/M01 A3009 RMK A01 T00141013  RH  083%=      5-min Rain = 0
KLD1 190635Z 34022G30KT 01/M02 A3009 RMK A01 T00111018  RH  082%=      5-min Rain = 0
KLD1 190640Z 34024G31KT 01/M02 A3009 RMK A01 T00091020  RH  081%=      5-min Rain = 0
KLD1 190645Z 34021G29KT 01/M02 A301 RMK A01 T00081021  RH  081%=      5-min Rain = 0
KLD1 190650Z 34021G31KT 01/M02 A301 RMK A01 T00081022  RH  081%=      5-min Rain = 0
KLD1 190655Z 34021G27KT 01/M02 A301 RMK A01 T00081023  RH  081%=      5-min Rain = 0
KLD1 190700Z 34021KT 01/M02 A301 RMK A01 T00071023  RH  081%=      5-min Rain = 0
KLD1 190705Z 34020G27KT 01/M02 A301 RMK A01 T00071023  RH  081%=      5-min Rain = 0
KLD1 190710Z 34021G28KT 01/M02 A301 RMK A01 T00071023  RH  081%=      5-min Rain = 0
KLD1 190715Z 34018G25KT 01/M02 A301 RMK A01 T00051022  RH  082%=      5-min Rain = 0
KLD1 190720Z 33015G20KT 00/M02 A301 RMK A01 T00041021  RH  084%=      5-min Rain = 0
KLD1 190725Z 33014G20KT 00/M02 A3011 RMK A01 T00021020  RH  086%=      5-min Rain = 0
KLD1 190730Z 33015G21KT 00/M02 A3011 RMK A01 T00041019  RH  086%=      5-min Rain = 0
KLD1 190735Z 32016G21KT 00/M02 A3011 RMK A01 T00041020  RH  085%=      5-min Rain = 0
KLD1 190740Z 32019G25KT 00/M02 A3012 RMK A01 T00041022  RH  084%=      5-min Rain = 0
KLD1 190745Z 33021G29KT 01/M02 A3012 RMK A01 T00051024  RH  082%=      5-min Rain = 0
KLD1 190750Z 33018G26KT 00/M03 A3012 RMK A01 T00041026  RH  081%=      5-min Rain = 0
KLD1 190755Z 33019G27KT 00/M03 A3012 RMK A01 T00041026  RH  081%=      5-min Rain = 0
KLD1 190800Z 33020G25KT 00/M03 A3013 RMK A01 T00041027  RH  080%=      5-min Rain = 0
KLD1 190805Z 33019G25KT 00/M03 A3013 RMK A01 T00041028  RH  080%=      5-min Rain = 0
KLD1 190810Z 33022G30KT 00/M03 A3013 RMK A01 T00041029  RH  079%=      5-min Rain = 0
KLD1 190815Z 33022G31KT 00/M03 A3013 RMK A01 T00041030  RH  078%=      5-min Rain = 0
KLD1 190820Z 33019G25KT 00/M03 A3013 RMK A01 T00031030  RH  079%=      5-min Rain = 0
KLD1 190825Z 33017G24KT 00/M03 A3014 RMK A01 T00011030  RH  080%=      5-min Rain = 0
KLD1 190830Z 32018G27KT 00/M03 A3014 RMK A01 T00011029  RH  080%=      5-min Rain = 0
KLD1 190835Z 33020G25KT 00/M03 A3014 RMK A01 T00021029  RH  080%=      5-min Rain = 0
KLD1 190840Z 32018KT 00/M03 A3014 RMK A01 T00021030  RH  080%=      5-min Rain = 0
KLD1 190845Z 32017G22KT 00/M03 A3014 RMK A01 T00011029  RH  081%=      5-min Rain = 0
KLD1 190850Z 32017G24KT 00/M03 A3014 RMK A01 T00011029  RH  081%=      5-min Rain = 0
KLD1 190855Z 33018G24KT 00/03 A3015 RMK A01 T00000-29  RH  081%=      5-min Rain = 0
KLD1 190900Z 33019G27KT 00/03 A3015 RMK A01 T00000-30  RH  081%=      5-min Rain = 0
KLD1 190905Z 33020G25KT 00/M03 A3015 RMK A01 T00011031  RH  080%=      5-min Rain = 0
KLD1 190910Z 33019G24KT 00/M03 A3015 RMK A01 T00021032  RH  079%=      5-min Rain = 0
KLD1 190915Z 32018G25KT 00/M03 A3016 RMK A01 T00021032  RH  078%=      5-min Rain = 0
KLD1 190920Z 32017G23KT 00/M03 A3016 RMK A01 T00011032  RH  079%=      5-min Rain = 0
KLD1 190925Z 32017G22KT 00/03 A3017 RMK A01 T00000-32  RH  079%=      5-min Rain = 0
KLD1 190930Z 32014KT M00/M03 A3017 RMK A01 T10011032  RH  080%=      5-min Rain = 0
KLD1 190935Z 32014G19KT M00/M03 A3017 RMK A01 T10021032  RH  080%=      5-min Rain = 0
KLD1 190940Z 32014G19KT M00/M03 A3018 RMK A01 T10031032  RH  081%=      5-min Rain = 0
KLD1 190945Z 31012KT M00/M03 A3018 RMK A01 T10041032  RH  082%=      5-min Rain = 0
KLD1 190950Z 32012KT M01/M03 A3018 RMK A01 T10051032  RH  083%=      5-min Rain = 0
KLD1 190955Z 32013KT M00/M03 A3018 RMK A01 T10041032  RH  082%=      5-min Rain = 0
KLD1 191000Z 31013KT M00/M03 A3018 RMK A01 T10031032  RH  081%=      5-min Rain = 0
KLD1 191005Z 32013G18KT M00/M03 A3018 RMK A01 T10031032  RH  081%=      5-min Rain = 0
KLD1 191010Z 32014KT M00/M03 A3018 RMK A01 T10011031  RH  080%=      5-min Rain = 0
KLD1 191015Z 32015KT 00/03 A3018 RMK A01 T00000-31  RH  080%=      5-min Rain = 0
KLD1 191020Z 32013KT 00/03 A3019 RMK A01 T00-00-32  RH  080%=      5-min Rain = 0
KLD1 191025Z 32013KT M00/M03 A3019 RMK A01 T10011032  RH  080%=      5-min Rain = 0
KLD1 191030Z 32013KT M00/M03 A3019 RMK A01 T10011032  RH  080%=      5-min Rain = 0
KLD1 191035Z 32013G18KT M00/M03 A3019 RMK A01 T10011032  RH  080%=      5-min Rain = 0
KLD1 191040Z 32013KT M00/M03 A3019 RMK A01 T10011032  RH  080%=      5-min Rain = 0
KLD1 191045Z 31013KT M00/M03 A3019 RMK A01 T10011032  RH  080%=      5-min Rain = 0
KLD1 191050Z 31011KT M00/M03 A302 RMK A01 T10021033  RH  080%=      5-min Rain = 0
KLD1 191055Z 31010KT M00/M03 A302 RMK A01 T10041033  RH  081%=      5-min Rain = 0
KLD1 191100Z 31010KT M01/M03 A3019 RMK A01 T10051034  RH  081%=      5-min Rain = 0
KLD1 191105Z 31010KT M01/M03 A3019 RMK A01 T10061034  RH  082%=      5-min Rain = 0
KLD1 191110Z 31010KT M01/M03 A3019 RMK A01 T10061034  RH  082%=      5-min Rain = 0
KLD1 191115Z 31010KT M01/M04 A302 RMK A01 T10071035  RH  082%=      5-min Rain = 0
KLD1 191120Z 31010KT M01/M04 A302 RMK A01 T10081035  RH  082%=      5-min Rain = 0
KLD1 191125Z 32010KT M01/M03 A3019 RMK A01 T10061034  RH  082%=      5-min Rain = 0
KLD1 191130Z 32010KT M00/M03 A3019 RMK A01 T10041034  RH  081%=      5-min Rain = 0
KLD1 191135Z 32010KT M00/M03 A3019 RMK A01 T10031034  RH  080%=      5-min Rain = 0
KLD1 191140Z 32011KT M00/M03 A3019 RMK A01 T10021034  RH  080%=      5-min Rain = 0
KLD1 191145Z 32012KT 00/03 A3019 RMK A01 T00-00-34  RH  078%=      5-min Rain = 0
KLD1 191150Z 31011KT 00/04 A3019 RMK A01 T00-00-35  RH  078%=      5-min Rain = 0
KLD1 191155Z 31011KT M00/M04 A3019 RMK A01 T10031035  RH  079%=      5-min Rain = 0
KLD1 191200Z 31012KT M00/M04 A3019 RMK A01 T10011035  RH  078%=      5-min Rain = 0
KLD1 191205Z 32012KT 00/M04 A302 RMK A01 T00011035  RH  077%=      5-min Rain = 0
KLD1 191210Z 32011KT M00/M04 A302 RMK A01 T10011036  RH  078%=      5-min Rain = 0
KLD1 191215Z 31011KT M00/M04 A302 RMK A01 T10011037  RH  078%=      5-min Rain = 0
KLD1 191220Z 31010KT M01/M04 A3021 RMK A01 T10051037  RH  079%=      5-min Rain = 0
KLD1 191225Z 31011KT M01/M04 A3021 RMK A01 T10051037  RH  080%=      5-min Rain = 0
KLD1 191230Z 31011KT M01/M04 A3021 RMK A01 T10061037  RH  080%=      5-min Rain = 0
KLD1 191235Z 31011KT M01/M04 A3022 RMK A01 T10071038  RH  080%=      5-min Rain = 0
KLD1 191240Z 31011KT M01/M04 A3022 RMK A01 T10061038  RH  080%=      5-min Rain = 0
KLD1 191245Z 31011KT M01/M04 A3022 RMK A01 T10061038  RH  079%=      5-min Rain = 0
KLD1 191250Z 31010KT M01/M04 A3023 RMK A01 T10071039  RH  080%=      5-min Rain = 0
KLD1 191255Z 31010KT M01/M04 A3023 RMK A01 T10091039  RH  080%=      5-min Rain = 0
KLD1 191300Z 31010KT M01/M04 A3023 RMK A01 T10081038  RH  080%=      5-min Rain = 0
KLD1 191305Z 31009KT M01/M04 A3024 RMK A01 T10081039  RH  080%=      5-min Rain = 0
KLD1 191310Z 31010KT M01/M04 A3024 RMK A01 T10081039  RH  080%=      5-min Rain = 0
KLD1 191315Z 31010KT M01/M04 A3024 RMK A01 T10071039  RH  080%=      5-min Rain = 0
KLD1 191320Z 31009KT M01/M04 A3024 RMK A01 T10081039  RH  080%=      5-min Rain = 0
KLD1 191325Z 31009KT M01/M04 A3025 RMK A01 T10101040  RH  081%=      5-min Rain = 0
KLD1 191330Z 31008KT M01/M04 A3025 RMK A01 T10121040  RH  081%=      5-min Rain = 0
KLD1 191335Z 31008KT M01/M04 A3025 RMK A01 T10141041  RH  082%=      5-min Rain = 0
KLD1 191340Z 31008KT M02/M04 A3026 RMK A01 T10151041  RH  082%=      5-min Rain = 0
KLD1 191345Z 31008KT M02/M04 A3026 RMK A01 T10151042  RH  082%=      5-min Rain = 0
KLD1 191350Z 30008KT M02/M04 A3026 RMK A01 T10151042  RH  082%=      5-min Rain = 0
KLD1 191355Z 30008KT M01/M04 A3026 RMK A01 T10141042  RH  082%=      5-min Rain = 0
KLD1 191400Z 30008KT M01/M04 A3026 RMK A01 T10131041  RH  081%=      5-min Rain = 0
KLD1 191405Z 31009KT M01/M04 A3026 RMK A01 T10091039  RH  081%=      5-min Rain = 0
KLD1 191410Z 31010KT M01/M04 A3026 RMK A01 T10051037  RH  079%=      5-min Rain = 0
KLD1 191415Z 31011KT 00/04 A3027 RMK A01 T00-00-36  RH  077%=      5-min Rain = 0
KLD1 191420Z 31010KT 00/M04 A3027 RMK A01 T00031036  RH  075%=      5-min Rain = 0
KLD1 191425Z 31010KT 01/M04 A3027 RMK A01 T00051036  RH  075%=      5-min Rain = 0
KLD1 191430Z 31010KT 01/M04 A3027 RMK A01 T00061035  RH  074%=      5-min Rain = 0
KLD1 191435Z 31011KT 01/M04 A3028 RMK A01 T00091035  RH  073%=      5-min Rain = 0
KLD1 191440Z 31011KT 01/M03 A3028 RMK A01 T00121034  RH  072%=      5-min Rain = 0
KLD1 191445Z 31012KT 01/M03 A3028 RMK A01 T00141033  RH  071%=      5-min Rain = 0
KLD1 191450Z 31011KT 02/M03 A3028 RMK A01 T00171032  RH  070%=      5-min Rain = 0
KLD1 191455Z 31011KT 02/M03 A3029 RMK A01 T00191032  RH  070%=      5-min Rain = 0
KLD1 191500Z 31011KT 02/M03 A3029 RMK A01 T00211031  RH  068%=      5-min Rain = 0
KLD1 191505Z 32012KT 02/M03 A303 RMK A01 T00241031  RH  067%=      5-min Rain = 0
KLD1 191510Z 32013KT 03/M03 A303 RMK A01 T00271030  RH  067%=      5-min Rain = 0
KLD1 191515Z 31013KT 03/M03 A303 RMK A01 T00291030  RH  065%=      5-min Rain = 0
KLD1 191520Z 31013KT 03/M03 A303 RMK A01 T00321029  RH  065%=      5-min Rain = 0
KLD1 191525Z 32012G18KT 03/M03 A3031 RMK A01 T00341029  RH  064%=      5-min Rain = 0
KLD1 191530Z 32012KT 04/M03 A3031 RMK A01 T00381028  RH  063%=      5-min Rain = 0
KLD1 191535Z 33013KT 04/M03 A3031 RMK A01 T00391028  RH  062%=      5-min Rain = 0
KLD1 191540Z 32014KT 04/M03 A3031 RMK A01 T00401029  RH  061%=      5-min Rain = 0
KLD1 191545Z 33015KT 04/M03 A3031 RMK A01 T00411029  RH  061%=      5-min Rain = 0
KLD1 191550Z 33015KT 04/M03 A3031 RMK A01 T00441027  RH  060%=      5-min Rain = 0
KLD1 191555Z 33014G19KT 05/M03 A3031 RMK A01 T00451026  RH  060%=      5-min Rain = 0
KLD1 191600Z 33014KT 05/M03 A3031 RMK A01 T00471026  RH  059%=      5-min Rain = 0
KLD1 191605Z 33013G18KT 05/M03 A3031 RMK A01 T00501027  RH  058%=      5-min Rain = 0
KLD1 191610Z 34013KT 05/M03 A3031 RMK A01 T00541027  RH  056%=      5-min Rain = 0
KLD1 191615Z 34014G19KT 06/M03 A3031 RMK A01 T00571028  RH  055%=      5-min Rain = 0
KLD1 191620Z 34016G21KT 06/M03 A3032 RMK A01 T00601028  RH  054%=      5-min Rain = 0
KLD1 191625Z 34014G21KT 06/M03 A3032 RMK A01 T00621027  RH  053%=      5-min Rain = 0
KLD1 191630Z 34016KT 07/M03 A3032 RMK A01 T00651031  RH  051%=      5-min Rain = 0
KLD1 191635Z 34017G23KT 07/M03 A3032 RMK A01 T00661031  RH  050%=      5-min Rain = 0
KLD1 191640Z 35017G22KT 07/M03 A3032 RMK A01 T00681032  RH  049%=      5-min Rain = 0
KLD1 191645Z 35018G24KT 07/M03 A3032 RMK A01 T00681033  RH  049%=      5-min Rain = 0
KLD1 191650Z 34016G21KT 07/M03 A3032 RMK A01 T00711030  RH  049%=      5-min Rain = 0
KLD1 191655Z 32014G19KT 07/M03 A3032 RMK A01 T00691027  RH  051%=      5-min Rain = 0
KLD1 191700Z 32014G19KT 07/M03 A3032 RMK A01 T00711025  RH  051%=      5-min Rain = 0
KLD1 191705Z 34015G21KT 07/M03 A3032 RMK A01 T00721027  RH  050%=      5-min Rain = 0
KLD1 191710Z 33014G19KT 08/M03 A3032 RMK A01 T00751027  RH  049%=      5-min Rain = 0
KLD1 191715Z 33015KT 08/M03 A3032 RMK A01 T00801028  RH  047%=      5-min Rain = 0
KLD1 191720Z 34016G25KT 08/M03 A3032 RMK A01 T00831030  RH  045%=      5-min Rain = 0
KLD1 191725Z 34016KT 08/M03 A3032 RMK A01 T00821032  RH  045%=      5-min Rain = 0
KLD1 191730Z 34018KT 08/M03 A3032 RMK A01 T00821034  RH  044%=      5-min Rain = 0
KLD1 191735Z 35018G23KT 08/M03 A3032 RMK A01 T00811033  RH  045%=      5-min Rain = 0
KLD1 191740Z 00018G23KT 08/M03 A3032 RMK A01 T00821031  RH  045%=      5-min Rain = 0
KLD1 191745Z 36017G22KT 08/M03 A3033 RMK A01 T00831030  RH  045%=      5-min Rain = 0
KLD1 191750Z 36017G23KT 08/M03 A3032 RMK A01 T00841029  RH  045%=      5-min Rain = 0
KLD1 191755Z 36017KT 08/M03 A3032 RMK A01 T00841029  RH  045%=      5-min Rain = 0
KLD1 191800Z 36015G20KT 09/M03 A3032 RMK A01 T00851030  RH  045%=      5-min Rain = 0
KLD1 191805Z 34015G21KT 09/M03 A3032 RMK A01 T00881029  RH  044%=      5-min Rain = 0
KLD1 191810Z 35012G17KT 09/M03 A3032 RMK A01 T00921027  RH  043%=      5-min Rain = 0
KLD1 191815Z 35013G18KT 09/M03 A3032 RMK A01 T00941028  RH  043%=      5-min Rain = 0
KLD1 191820Z 34015KT 09/M03 A3032 RMK A01 T00931030  RH  042%=      5-min Rain = 0
KLD1 191825Z 34013KT 09/M03 A3032 RMK A01 T00901029  RH  043%=      5-min Rain = 0
KLD1 191830Z 35014G19KT 09/M03 A3032 RMK A01 T00931028  RH  043%=      5-min Rain = 0
KLD1 191835Z 35014KT 10/M03 A3032 RMK A01 T00951026  RH  043%=      5-min Rain = 0
KLD1 191840Z 34014G21KT 10/M03 A3032 RMK A01 T00971029  RH  041%=      5-min Rain = 0
KLD1 191845Z 32013G19KT 10/M03 A3032 RMK A01 T00961030  RH  041%=      5-min Rain = 0
KLD1 191850Z 35013G18KT 10/M03 A3031 RMK A01 T00961030  RH  041%=      5-min Rain = 0
KLD1 191855Z 35012G18KT 10/M03 A3031 RMK A01 T01001027  RH  041%=      5-min Rain = 0
KLD1 191900Z 35012KT 10/M03 A3031 RMK A01 T00981029  RH  041%=      5-min Rain = 0
KLD1 191905Z 34011KT 10/M03 A3031 RMK A01 T00981029  RH  041%=      5-min Rain = 0
KLD1 191910Z 34012G17KT 10/M03 A3031 RMK A01 T01011028  RH  041%=      5-min Rain = 0
KLD1 191915Z 33011G17KT 10/M03 A303 RMK A01 T01011030  RH  040%=      5-min Rain = 0
KLD1 191920Z 34013KT 10/M03 A303 RMK A01 T01011030  RH  040%=      5-min Rain = 0
KLD1 191925Z 34010G16KT 10/M03 A303 RMK A01 T01011028  RH  040%=      5-min Rain = 0
KLD1 191930Z 33010G16KT 10/M03 A303 RMK A01 T01041028  RH  040%=      5-min Rain = 0
KLD1 191935Z 33009KT 11/M03 A303 RMK A01 T01061031  RH  038%=      5-min Rain = 0
KLD1 191940Z 33010G16KT 10/M03 A3029 RMK A01 T01041029  RH  039%=      5-min Rain = 0
KLD1 191945Z 32009G17KT 11/M03 A3029 RMK A01 T01061030  RH  039%=      5-min Rain = 0
KLD1 191950Z 34011G17KT 11/M03 A3029 RMK A01 T01051030  RH  039%=      5-min Rain = 0
KLD1 191955Z 33012G17KT 11/M03 A3029 RMK A01 T01061031  RH  038%=      5-min Rain = 0
KLD1 192000Z 33008KT 11/M03 A3029 RMK A01 T01071029  RH  039%=      5-min Rain = 0
KLD1 192005Z 34010G15KT 11/M03 A3028 RMK A01 T01101029  RH  038%=      5-min Rain = 0
KLD1 192010Z 35011G17KT 11/M03 A3028 RMK A01 T01091030  RH  038%=      5-min Rain = 0
KLD1 192015Z 35009KT 11/M03 A3028 RMK A01 T01091029  RH  038%=      5-min Rain = 0
KLD1 192020Z 34009KT 11/M03 A3027 RMK A01 T01101031  RH  037%=      5-min Rain = 0
KLD1 192025Z 32008KT 11/M03 A3027 RMK A01 T01111033  RH  036%=      5-min Rain = 0
KLD1 192030Z 33006KT 11/M03 A3027 RMK A01 T01141033  RH  036%=      5-min Rain = 0
KLD1 192035Z 33008KT 11/M03 A3026 RMK A01 T01131032  RH  036%=      5-min Rain = 0
KLD1 192040Z 33009G14KT 12/M03 A3026 RMK A01 T01181033  RH  035%=      5-min Rain = 0
KLD1 192045Z 32009G14KT 12/M04 A3026 RMK A01 T01171038  RH  034%=      5-min Rain = 0
KLD1 192050Z 30009KT 12/M04 A3026 RMK A01 T01161041  RH  033%=      5-min Rain = 0
KLD1 192055Z 31010KT 12/M04 A3026 RMK A01 T01161040  RH  033%=      5-min Rain = 0
KLD1 192100Z 31007KT 11/M04 A3026 RMK A01 T01141040  RH  034%=      5-min Rain = 0
KLD1 192105Z 30009KT 12/M04 A3026 RMK A01 T01161037  RH  034%=      5-min Rain = 0
KLD1 192110Z 32011KT 12/M04 A3026 RMK A01 T01171041  RH  033%=      5-min Rain = 0
KLD1 192115Z 31009KT 12/M04 A3026 RMK A01 T01171042  RH  033%=      5-min Rain = 0
KLD1 192120Z 31011KT 12/M04 A3026 RMK A01 T01171042  RH  033%=      5-min Rain = 0
KLD1 192125Z 31007KT 12/M04 A3026 RMK A01 T01151041  RH  033%=      5-min Rain = 0
KLD1 192130Z 32006KT 12/M04 A3026 RMK A01 T01181038  RH  034%=      5-min Rain = 0
KLD1 192135Z 32007KT 12/M04 A3025 RMK A01 T01221039  RH  033%=      5-min Rain = 0
KLD1 192140Z 33009KT 12/M05 A3025 RMK A01 T01201045  RH  031%=      5-min Rain = 0
KLD1 192145Z 34009KT 12/M05 A3025 RMK A01 T01171046  RH  032%=      5-min Rain = 0
KLD1 192150Z 35009KT 12/M05 A3025 RMK A01 T01181045  RH  032%=      5-min Rain = 0
KLD1 192155Z 34009KT 12/M05 A3025 RMK A01 T01191046  RH  031%=      5-min Rain = 0
KLD1 192200Z 33009KT 12/M05 A3025 RMK A01 T01181053  RH  030%=      5-min Rain = 0
KLD1 192205Z 32008G13KT 12/M05 A3025 RMK A01 T01201052  RH  030%=      5-min Rain = 0
KLD1 192210Z 34008KT 12/M05 A3025 RMK A01 T01211050  RH  030%=      5-min Rain = 0
KLD1 192215Z 33009KT 12/M05 A3025 RMK A01 T01201052  RH  030%=      5-min Rain = 0
KLD1 192220Z 33008G13KT 12/M05 A3025 RMK A01 T01171050  RH  031%=      5-min Rain = 0
KLD1 192225Z 33005KT 12/M05 A3025 RMK A01 T01171050  RH  031%=      5-min Rain = 0
KLD1 192230Z 34006G11KT 12/M05 A3025 RMK A01 T01191049  RH  031%=      5-min Rain = 0
KLD1 192235Z 33008KT 12/M05 A3025 RMK A01 T01181052  RH  030%=      5-min Rain = 0
KLD1 192240Z 33006KT 12/M05 A3025 RMK A01 T01181053  RH  030%=      5-min Rain = 0
KLD1 192245Z 34006KT 12/M05 A3025 RMK A01 T01181050  RH  031%=      5-min Rain = 0
KLD1 192250Z 35007KT 12/M05 A3025 RMK A01 T01171050  RH  031%=      5-min Rain = 0
KLD1 192255Z 35004KT 12/M05 A3025 RMK A01 T01151051  RH  031%=      5-min Rain = 0
KLD1 192300Z 33004KT 12/M05 A3025 RMK A01 T01161049  RH  031%=      5-min Rain = 0
KLD1 192305Z 33005KT 12/M05 A3025 RMK A01 T01161050  RH  031%=      5-min Rain = 0
KLD1 192310Z 34007KT 12/M05 A3025 RMK A01 T01151048  RH  032%=      5-min Rain = 0
KLD1 192315Z 32005KT 11/M05 A3025 RMK A01 T01141051  RH  031%=      5-min Rain = 0
KLD1 192320Z 33004KT 11/M05 A3025 RMK A01 T01131046  RH  033%=      5-min Rain = 0
KLD1 192325Z 32005KT 11/M04 A3025 RMK A01 T01111044  RH  033%=      5-min Rain = 0
KLD1 192330Z 32005KT 11/M05 A3025 RMK A01 T01101048  RH  033%=      5-min Rain = 0
KLD1 192335Z 33004KT 11/M05 A3025 RMK A01 T01081047  RH  033%=      5-min Rain = 0
KLD1 192340Z 34003KT 11/M05 A3025 RMK A01 T01051047  RH  034%=      5-min Rain = 0
KLD1 192345Z 34002KT 10/M04 A3025 RMK A01 T01041044  RH  035%=      5-min Rain = 0
KLD1 192350Z 01003KT 10/M04 A3025 RMK A01 T01031044  RH  036%=      5-min Rain = 0
KLD1 192355Z 02003KT 10/M04 A3025 RMK A01 T00981043  RH  037%=      5-min Rain = 0
KLD1 200000Z 03004KT 09/M05 A3025 RMK A01 T00941045  RH  037%=      5-min Rain = 0
KLD1 200005Z 04004KT 09/M05 A3025 RMK A01 T00861046  RH  039%=      5-min Rain = 0
KLD1 200010Z 05004KT 08/M05 A3025 RMK A01 T00831046  RH  040%=      5-min Rain = 0
KLD1 200015Z 06005KT 07/M05 A3025 RMK A01 T00731045  RH  043%=      5-min Rain = 0
KLD1 200020Z 07004KT 07/M04 A3025 RMK A01 T00691043  RH  045%=      5-min Rain = 0
KLD1 200025Z 09003KT 07/M04 A3025 RMK A01 T00671044  RH  045%=      5-min Rain = 0
KLD1 200030Z 10005KT 06/M04 A3025 RMK A01 T00631043  RH  047%=      5-min Rain = 0
KLD1 200035Z 09006KT 06/M04 A3025 RMK A01 T00581043  RH  049%=      5-min Rain = 0
KLD1 200040Z 07006KT 05/M04 A3025 RMK A01 T00501044  RH  051%=      5-min Rain = 0
KLD1 200045Z 06006KT 05/M04 A3025 RMK A01 T00461044  RH  052%=      5-min Rain = 0
KLD1 200050Z 06007KT 04/M04 A3025 RMK A01 T00411041  RH  055%=      5-min Rain = 0
KLD1 200055Z 07006KT 04/M04 A3025 RMK A01 T00381036  RH  059%=      5-min Rain = 0
KLD1 200100Z 08005KT 04/M04 A3026 RMK A01 T00411035  RH  058%=      5-min Rain = 0
KLD1 200105Z 09004KT 05/M04 A3026 RMK A01 T00451035  RH  057%=      5-min Rain = 0
KLD1 200110Z 10004KT 04/M04 A3026 RMK A01 T00431036  RH  057%=      5-min Rain = 0
KLD1 200115Z 09004KT 04/M04 A3025 RMK A01 T00441036  RH  056%=      5-min Rain = 0
KLD1 200120Z 09004KT 04/M04 A3025 RMK A01 T00401037  RH  057%=      5-min Rain = 0
KLD1 200125Z 08005KT 04/M04 A3026 RMK A01 T00371038  RH  059%=      5-min Rain = 0
KLD1 200130Z 10004KT 03/M04 A3026 RMK A01 T00321039  RH  060%=      5-min Rain = 0
KLD1 200135Z 10005KT 03/M04 A3025 RMK A01 T00321039  RH  060%=      5-min Rain = 0
KLD1 200140Z 11006KT 03/M04 A3024 RMK A01 T00301038  RH  061%=      5-min Rain = 0
KLD1 200145Z 11006KT 03/M04 A3024 RMK A01 T00321037  RH  061%=      5-min Rain = 0
KLD1 200150Z 10006KT 02/M04 A3024 RMK A01 T00231043  RH  062%=      5-min Rain = 0
KLD1 200155Z 11005KT 02/M04 A3024 RMK A01 T00171043  RH  065%=      5-min Rain = 0
KLD1 200200Z 10005KT 02/M04 A3025 RMK A01 T00191042  RH  064%=      5-min Rain = 0
KLD1 200205Z 11005KT 02/M04 A3025 RMK A01 T00191043  RH  064%=      5-min Rain = 0
KLD1 200210Z 12004KT 02/M04 A3025 RMK A01 T00201042  RH  064%=      5-min Rain = 0
KLD1 200215Z 12003KT 02/M04 A3026 RMK A01 T00241041  RH  063%=      5-min Rain = 0
KLD1 200220Z 10003KT 02/M04 A3026 RMK A01 T00231042  RH  062%=      5-min Rain = 0
KLD1 200225Z 10004KT 02/M04 A3026 RMK A01 T00191043  RH  064%=      5-min Rain = 0
KLD1 200230Z 11003KT 02/M04 A3027 RMK A01 T00171043  RH  065%=      5-min Rain = 0
KLD1 200235Z 11003KT 02/M04 A3027 RMK A01 T00171043  RH  065%=      5-min Rain = 0
KLD1 200240Z 10003KT 02/M04 A3028 RMK A01 T00171044  RH  064%=      5-min Rain = 0
KLD1 200245Z 09002KT 01/M04 A3028 RMK A01 T00141044  RH  066%=      5-min Rain = 0
KLD1 200250Z 11003KT 02/M04 A3028 RMK A01 T00151042  RH  066%=      5-min Rain = 0
KLD1 200255Z 12005KT 02/M04 A3027 RMK A01 T00191041  RH  065%=      5-min Rain = 0
KLD1 200300Z 11004KT 02/M04 A3028 RMK A01 T00191043  RH  064%=      5-min Rain = 0
KLD1 200305Z 12004KT 01/M04 A3027 RMK A01 T00141044  RH  065%=      5-min Rain = 0
KLD1 200310Z 12005KT 01/M04 A3027 RMK A01 T00131044  RH  066%=      5-min Rain = 0
KLD1 200315Z 12005KT 02/M04 A3027 RMK A01 T00171042  RH  066%=      5-min Rain = 0
KLD1 200320Z 13007KT 02/M04 A3026 RMK A01 T00151042  RH  066%=      5-min Rain = 0
KLD1 200325Z 14006KT 02/M04 A3026 RMK A01 T00151041  RH  066%=      5-min Rain = 0
KLD1 200330Z 13005KT 01/M04 A3026 RMK A01 T00141042  RH  066%=      5-min Rain = 0
KLD1 200335Z 13005KT 01/M05 A3026 RMK A01 T00061050  RH  066%=      5-min Rain = 0
KLD1 200340Z 14006KT M00/M05 A3026 RMK A01 T10021050  RH  070%=      5-min Rain = 0
KLD1 200345Z 14006KT 00/M05 A3026 RMK A01 T00011045  RH  071%=      5-min Rain = 0
KLD1 200350Z 14007KT 01/M04 A3026 RMK A01 T00071044  RH  069%=      5-min Rain = 0
KLD1 200355Z 14006KT 01/M05 A3026 RMK A01 T00091045  RH  067%=      5-min Rain = 0
KLD1 200400Z 14006KT 01/M05 A3026 RMK A01 T00051048  RH  068%=      5-min Rain = 0
KLD1 200405Z 15005KT 00/M05 A3026 RMK A01 T00011048  RH  070%=      5-min Rain = 0
KLD1 200410Z 15005KT M00/M05 A3026 RMK A01 T10021050  RH  070%=      5-min Rain = 0
KLD1 200415Z 16006KT M00/M05 A3027 RMK A01 T10041051  RH  071%=      5-min Rain = 0
KLD1 200420Z 17007KT M00/M05 A3027 RMK A01 T10021049  RH  071%=      5-min Rain = 0
KLD1 200425Z 16007KT M00/M05 A3026 RMK A01 T10031050  RH  071%=      5-min Rain = 0
KLD1 200430Z 17007KT M00/M05 A3027 RMK A01 T10031050  RH  071%=      5-min Rain = 0
KLD1 200435Z 16007KT M00/M05 A3026 RMK A01 T10041051  RH  070%=      5-min Rain = 0
KLD1 200440Z 17007KT M00/M05 A3026 RMK A01 T10041052  RH  071%=      5-min Rain = 0
KLD1 200445Z 17008KT M00/M05 A3026 RMK A01 T10031051  RH  070%=      5-min Rain = 0
KLD1 200450Z 17007KT M00/M05 A3026 RMK A01 T10011050  RH  070%=      5-min Rain = 0
KLD1 200455Z 17007KT 00/05 A3027 RMK A01 T00000-50  RH  069%=      5-min Rain = 0
KLD1 200500Z 17007KT 00/05 A3026 RMK A01 T00-00-51  RH  069%=      5-min Rain = 0
KLD1 200505Z 17007KT M00/M05 A3026 RMK A01 T10011051  RH  069%=      5-min Rain = 0
KLD1 200510Z 17007KT M00/M05 A3026 RMK A01 T10041052  RH  070%=      5-min Rain = 0
KLD1 200515Z 17006KT M00/M05 A3027 RMK A01 T10041053  RH  070%=      5-min Rain = 0
KLD1 200520Z 17007KT M00/M05 A3027 RMK A01 T10041053  RH  070%=      5-min Rain = 0
KLD1 200525Z 16006KT M00/M05 A3027 RMK A01 T10031054  RH  069%=      5-min Rain = 0
KLD1 200530Z 16006KT M01/M06 A3028 RMK A01 T10051055  RH  069%=      5-min Rain = 0
KLD1 200535Z 16005KT M01/M05 A3028 RMK A01 T10061054  RH  070%=      5-min Rain = 0
KLD1 200540Z 17007KT M01/M05 A3028 RMK A01 T10061054  RH  070%=      5-min Rain = 0
KLD1 200545Z 17007KT M01/M06 A3027 RMK A01 T10081055  RH  070%=      5-min Rain = 0
KLD1 200550Z 17008KT M01/M06 A3027 RMK A01 T10111056  RH  072%=      5-min Rain = 0
KLD1 200555Z 17007KT M01/M05 A3027 RMK A01 T10081054  RH  071%=      5-min Rain = 0

Page generated in 0.0235 seconds.